Time;durP1;ratioP1;P1;durP2;ratioP2;P2;SDS_P1;SDS_P2;PMS_P1;PMS_P2;Temp;Humidity;BMP_temperature;BMP_pressure;BME280_temperature;BME280_humidity;BME280_pressure;Samples;Min_cycle;Max_cycle;Signal;HPM_P1;HPM_P2
2022/03/13 00:01:03;;;;;;;22.80;9.50;;;;;;;-1.23;41.29;101193.36;105061;1277;71224;-76
2022/03/13 00:03:52;;;;;;;24.30;9.70;;;;;;;-1.22;41.07;101195.09;104594;1277;66817;-74
2022/03/13 00:06:44;;;;;;;18.80;8.90;;;;;;;-1.21;41.03;101194.19;104839;1277;72833;-76
2022/03/13 00:09:32;;;;;;;22.60;8.80;;;;;;;-1.20;41.46;101193.31;104886;1275;59627;-75
2022/03/13 00:12:27;;;;;;;23.20;7.60;;;;;;;-1.18;41.26;101188.94;104849;1275;60392;-76
2022/03/13 00:15:15;;;;;;;20.20;8.00;;;;;;;-1.14;40.90;101192.21;104039;1275;1003515;-76
2022/03/13 00:18:03;;;;;;;20.40;8.50;;;;;;;-1.12;41.03;101189.58;104274;1274;1002801;-76
2022/03/13 00:20:51;;;;;;;21.70;9.60;;;;;;;-1.10;41.13;101189.38;105060;1275;73133;-76
2022/03/13 00:23:39;;;;;;;19.00;8.60;;;;;;;-1.10;41.01;101185.90;104733;1277;59637;-76
2022/03/13 00:26:26;;;;;;;21.40;8.20;;;;;;;-1.11;40.99;101185.02;105016;1274;59663;-76
2022/03/13 00:29:21;;;;;;;22.40;9.00;;;;;;;-1.13;41.08;101184.35;104746;1275;73296;-76
2022/03/13 00:32:09;;;;;;;16.70;7.20;;;;;;;-1.12;41.04;101182.42;104778;1275;67875;-75
2022/03/13 00:35:03;;;;;;;21.90;8.80;;;;;;;-1.11;40.99;101183.47;103894;1277;1002992;-76
2022/03/13 00:37:55;;;;;;;20.60;8.30;;;;;;;-1.13;40.88;101184.36;104584;1274;59652;-75
2022/03/13 00:40:51;;;;;;;21.20;8.60;;;;;;;-1.13;40.90;101178.43;104681;1275;60944;-76
2022/03/13 00:43:40;;;;;;;20.60;8.50;;;;;;;-1.09;40.91;101178.73;104736;1275;73714;-75
2022/03/13 00:46:33;;;;;;;21.20;8.50;;;;;;;-1.07;40.96;101176.79;104200;1274;1003895;-75
2022/03/13 00:49:21;;;;;;;26.10;9.20;;;;;;;-1.08;41.11;101171.23;104837;1274;74513;-75
2022/03/13 00:52:08;;;;;;;19.30;7.90;;;;;;;-1.07;41.13;101173.66;104979;1274;59550;-75
2022/03/13 00:54:57;;;;;;;24.80;8.80;;;;;;;-1.04;40.88;101175.02;104818;1275;60598;-74
2022/03/13 00:57:44;;;;;;;22.70;8.10;;;;;;;-1.02;40.87;101172.20;104875;1275;72003;-76
2022/03/13 01:00:32;;;;;;;23.00;8.70;;;;;;;-1.00;40.78;101170.10;105016;1274;68162;-76
2022/03/13 01:03:52;;;;;;;24.10;8.30;;;;;;;-0.99;40.58;101176.18;104870;1274;73008;-75
2022/03/13 01:06:41;;;;;;;21.90;8.10;;;;;;;-0.96;40.56;101167.43;104894;1274;59707;-76
2022/03/13 01:09:28;;;;;;;23.20;9.30;;;;;;;-0.94;40.61;101165.14;104209;1274;1003877;-76
2022/03/13 01:12:16;;;;;;;27.60;10.00;;;;;;;-0.93;40.67;101160.42;104970;1274;73110;-76
2022/03/13 01:15:08;;;;;;;25.90;10.00;;;;;;;-0.93;40.52;101157.98;103851;1274;1003019;-76
2022/03/13 01:18:00;;;;;;;24.10;10.00;;;;;;;-0.93;40.47;101158.52;105060;1274;73227;-74
2022/03/13 01:20:48;;;;;;;22.50;8.90;;;;;;;-0.96;40.64;101154.38;104933;1274;59774;-76
2022/03/13 01:23:39;;;;;;;27.00;10.40;;;;;;;-0.98;40.77;101159.10;104125;1274;1002536;-76
2022/03/13 01:26:26;;;;;;;20.30;9.10;;;;;;;-0.99;40.72;101160.48;104172;1274;1002956;-75
2022/03/13 01:29:15;;;;;;;21.60;8.50;;;;;;;-0.98;40.90;101159.78;105020;1274;68189;-76
2022/03/13 01:32:03;;;;;;;20.00;8.00;;;;;;;-0.97;41.10;101157.52;104854;1274;72309;-75
2022/03/13 01:34:54;;;;;;;21.30;8.60;;;;;;;-0.99;40.86;101156.66;104228;1274;1003480;-76
2022/03/13 01:37:42;;;;;;;25.50;10.20;;;;;;;-1.00;41.02;101153.02;104959;1274;60726;-76
2022/03/13 01:40:34;;;;;;;29.50;9.80;;;;;;;-1.05;41.03;101154.13;103871;1274;1003586;-75
2022/03/13 01:43:21;;;;;;;24.00;9.60;;;;;;;-1.09;41.02;101159.23;104877;1274;66972;-76
2022/03/13 01:46:09;;;;;;;22.50;10.10;;;;;;;-1.13;40.96;101163.62;104799;1274;72603;-76
2022/03/13 01:49:03;;;;;;;24.10;10.60;;;;;;;-1.15;41.14;101161.39;104954;1273;60358;-76
2022/03/13 01:51:50;;;;;;;24.20;10.30;;;;;;;-1.20;41.53;101165.80;105118;1274;59630;-76
2022/03/13 01:54:39;;;;;;;23.10;10.10;;;;;;;-1.21;41.41;101161.63;104182;1275;1002645;-76
2022/03/13 01:57:27;;;;;;;25.30;9.60;;;;;;;-1.23;41.72;101157.12;103517;1274;1003793;-76
2022/03/13 02:00:17;;;;;;;23.30;10.10;;;;;;;-1.25;41.67;101161.15;104966;1274;71620;-76
2022/03/13 02:03:04;;;;;;;25.00;10.00;;;;;;;-1.29;41.59;101163.45;105283;1274;59775;-76
2022/03/13 02:05:52;;;;;;;25.30;10.60;;;;;;;-1.31;41.73;101165.57;104690;1274;59763;-76
2022/03/13 02:08:40;;;;;;;23.60;10.40;;;;;;;-1.36;41.99;101168.59;104938;1274;73335;-76
2022/03/13 02:11:38;;;;;;;22.80;9.60;;;;;;;-1.42;42.14;101171.77;104964;1273;66553;-76
2022/03/13 02:14:26;;;;;;;25.60;10.30;;;;;;;-1.49;42.59;101172.90;104745;1274;71591;-75
2022/03/13 02:17:27;;;;;;;25.60;10.40;;;;;;;-1.60;43.00;101173.36;104910;1274;59657;-76
2022/03/13 02:20:26;;;;;;;23.70;9.90;;;;;;;-1.71;43.57;101174.67;103964;1275;1003478;-77
2022/03/13 02:23:36;;;;;;;25.30;10.50;;;;;;;-1.82;44.11;101170.61;104703;1273;71855;-76
2022/03/13 02:26:25;;;;;;;26.90;10.80;;;;;;;-1.94;44.39;101171.23;104190;1274;1003748;-76
2022/03/13 02:29:15;;;;;;;25.10;10.00;;;;;;;-2.02;44.48;101175.64;104932;1273;73154;-75
2022/03/13 02:32:03;;;;;;;27.70;10.70;;;;;;;-2.11;45.05;101174.15;104737;1273;59695;-75
2022/03/13 02:34:54;;;;;;;25.20;10.60;;;;;;;-2.20;45.31;101172.98;105082;1274;61166;-75
2022/03/13 02:37:42;;;;;;;27.50;10.90;;;;;;;-2.30;45.88;101172.55;104663;1274;72124;-74
2022/03/13 02:40:35;;;;;;;26.80;10.20;;;;;;;-2.40;46.77;101180.42;104991;1274;68604;-75
2022/03/13 02:43:25;;;;;;;27.20;9.90;;;;;;;-2.51;47.90;101179.46;104969;1275;73223;-76
2022/03/13 02:46:23;;;;;;;24.50;9.60;;;;;;;-2.61;48.52;101176.90;104988;1274;59785;-76
2022/03/13 02:49:19;;;;;;;24.30;10.00;;;;;;;-2.70;49.51;101180.77;104596;1273;59883;-75
2022/03/13 02:52:07;;;;;;;24.90;10.20;;;;;;;-2.79;49.99;101177.16;104714;1274;71538;-75
2022/03/13 02:54:58;;;;;;;24.10;10.40;;;;;;;-2.88;50.46;101177.73;105228;1273;68085;-75
2022/03/13 02:57:46;;;;;;;25.40;10.30;;;;;;;-2.94;50.43;101179.49;104040;1274;1002555;-75
2022/03/13 03:00:48;;;;;;;24.60;10.40;;;;;;;-3.01;50.62;101173.27;104987;1273;59675;-76
2022/03/13 03:03:37;;;;;;;23.20;10.30;;;;;;;-3.06;50.50;101172.78;104864;1273;60475;-75
2022/03/13 03:06:28;;;;;;;25.30;10.20;;;;;;;-3.12;50.91;101170.88;104322;1273;1003261;-74
2022/03/13 03:09:18;;;;;;;25.60;10.50;;;;;;;-3.17;51.46;101165.86;104325;1274;1003872;-76
2022/03/13 03:12:07;;;;;;;25.90;9.20;;;;;;;-3.22;51.77;101164.66;104165;1274;1003080;-76
2022/03/13 03:14:55;;;;;;;23.00;10.10;;;;;;;-3.29;51.87;101159.66;104275;1274;1003121;-75
2022/03/13 03:17:44;;;;;;;142.50;44.20;;;;;;;-3.32;52.05;101166.77;104169;1273;1003078;-76
2022/03/13 03:20:34;;;;;;;333.30;96.50;;;;;;;-3.36;52.35;101164.36;104196;1273;1003050;-75
2022/03/13 03:23:22;;;;;;;273.60;77.30;;;;;;;-3.40;52.43;101164.90;104235;1273;1003746;-76
2022/03/13 03:26:10;;;;;;;476.50;167.30;;;;;;;-3.44;52.11;101166.30;104824;1273;73212;-76
2022/03/13 03:29:00;;;;;;;291.80;98.30;;;;;;;-3.47;51.52;101167.51;104867;1273;59718;-76
2022/03/13 03:31:49;;;;;;;216.40;75.40;;;;;;;-3.48;50.84;101168.91;104789;1274;60272;-76
2022/03/13 03:34:41;;;;;;;228.40;91.30;;;;;;;-3.49;50.76;101172.02;105224;1273;73080;-73
2022/03/13 03:37:34;;;;;;;221.50;93.50;;;;;;;-3.51;50.47;101175.14;104356;1273;1003340;-76
2022/03/13 03:40:27;;;;;;;193.10;78.50;;;;;;;-3.51;50.75;101179.84;104251;1273;1003325;-76
2022/03/13 03:43:15;;;;;;;148.90;63.30;;;;;;;-3.55;51.31;101172.22;104937;1274;59776;-75
2022/03/13 03:46:03;;;;;;;169.50;68.90;;;;;;;-3.54;51.41;101178.80;104989;1273;59680;-75
2022/03/13 03:48:52;;;;;;;118.50;48.70;;;;;;;-3.55;51.51;101180.02;104921;1273;73361;-75
2022/03/13 03:51:40;;;;;;;80.70;35.40;;;;;;;-3.57;51.39;101181.23;104937;1274;68148;-77
2022/03/13 03:54:29;;;;;;;65.10;27.40;;;;;;;-3.60;51.34;101175.86;105029;1274;71715;-75
2022/03/13 03:57:22;;;;;;;54.30;22.60;;;;;;;-3.61;51.94;101178.48;104583;1274;59816;-76
2022/03/13 04:00:11;;;;;;;46.20;18.40;;;;;;;-3.63;52.32;101176.21;104643;1276;59555;-75
2022/03/13 04:03:01;;;;;;;38.60;18.20;;;;;;;-3.64;52.62;101178.29;104810;1276;73216;-76
2022/03/13 04:05:50;;;;;;;38.00;16.30;;;;;;;-3.65;52.49;101181.25;104625;1277;65840;-75
2022/03/13 04:08:37;;;;;;;37.30;17.00;;;;;;;-3.67;52.40;101182.12;104506;1277;71719;-75
2022/03/13 04:11:28;;;;;;;32.80;15.10;;;;;;;-3.68;52.87;101180.20;104764;1276;59832;-75
2022/03/13 04:14:18;;;;;;;34.10;13.90;;;;;;;-3.69;53.17;101184.02;104610;1277;60076;-74
2022/03/13 04:17:08;;;;;;;31.40;12.50;;;;;;;-3.71;53.09;101181.42;104834;1278;73120;-75
2022/03/13 04:19:55;;;;;;;29.30;12.90;;;;;;;-3.71;53.23;101182.30;105037;1276;68030;-76
2022/03/13 04:22:45;;;;;;;28.20;12.50;;;;;;;-3.72;53.26;101182.82;104459;1277;71648;-75
2022/03/13 04:25:34;;;;;;;29.20;12.90;;;;;;;-3.74;53.42;101185.42;103964;1277;1003670;-76
2022/03/13 04:28:22;;;;;;;32.20;13.30;;;;;;;-3.75;52.91;101186.64;104513;1276;59645;-75
2022/03/13 04:31:13;;;;;;;34.40;15.30;;;;;;;-3.77;53.10;101190.80;104698;1277;73537;-75
2022/03/13 04:34:02;;;;;;;31.30;13.50;;;;;;;-3.77;52.52;101193.57;104791;1276;67955;-75
2022/03/13 04:36:51;;;;;;;34.50;18.10;;;;;;;-3.77;52.24;101190.63;104716;1276;72146;-75
2022/03/13 04:39:39;;;;;;;35.10;16.80;;;;;;;-3.76;52.38;101190.28;103874;1276;1015321;-75
2022/03/13 04:42:26;;;;;;;41.70;17.80;;;;;;;-3.77;52.10;101187.51;104516;1276;59736;-74
2022/03/13 04:45:14;;;;;;;30.30;14.30;;;;;;;-3.79;52.46;101187.68;104849;1274;72952;-75
2022/03/13 04:48:02;;;;;;;31.50;14.30;;;;;;;-3.78;52.79;101194.45;104914;1274;65527;-76
2022/03/13 04:50:49;;;;;;;31.90;14.60;;;;;;;-3.79;53.09;101195.66;104335;1274;1003416;-75
2022/03/13 04:53:38;;;;;;;32.40;16.90;;;;;;;-3.80;53.15;101200.69;105119;1274;59652;-77
2022/03/13 04:56:27;;;;;;;33.60;16.90;;;;;;;-3.79;52.85;101196.88;104681;1274;59611;-77
2022/03/13 04:59:19;;;;;;;31.70;16.10;;;;;;;-3.79;53.01;101196.17;105056;1274;73485;-76
2022/03/13 05:02:07;;;;;;;29.20;16.40;;;;;;;-3.79;52.77;101191.50;105190;1273;68587;-76
2022/03/13 05:04:55;;;;;;;33.90;17.20;;;;;;;-3.77;52.93;101194.09;105001;1274;71596;-76
2022/03/13 05:07:45;;;;;;;33.80;17.20;;;;;;;-3.76;53.03;101200.16;104035;1274;1003641;-76
2022/03/13 05:10:36;;;;;;;39.90;18.70;;;;;;;-3.75;52.75;101202.42;104498;1273;1002854;-73
2022/03/13 05:13:27;;;;;;;43.30;19.40;;;;;;;-3.75;52.70;101204.17;104087;1274;1003115;-75
2022/03/13 05:16:14;;;;;;;37.90;15.00;;;;;;;-3.72;52.75;101207.96;104225;1273;1002806;-76
2022/03/13 05:19:02;;;;;;;33.90;14.80;;;;;;;-3.69;52.49;101205.36;104902;1274;72935;-77
2022/03/13 05:21:50;;;;;;;33.00;13.90;;;;;;;-3.63;52.08;101205.54;104861;1274;59723;-76
2022/03/13 05:24:38;;;;;;;37.20;14.40;;;;;;;-3.60;52.31;101201.71;105250;1271;61771;-76
2022/03/13 05:27:25;;;;;;;41.00;14.30;;;;;;;-3.57;52.23;101201.53;105033;1273;73441;-76
2022/03/13 05:30:16;;;;;;;45.70;14.10;;;;;;;-3.52;52.26;101204.13;105024;1273;67563;-76
2022/03/13 05:33:08;;;;;;;42.80;13.90;;;;;;;-3.50;51.93;101201.87;104820;1273;73348;-76
2022/03/13 05:35:55;;;;;;;42.60;14.40;;;;;;;-3.42;51.57;101205.67;104919;1273;59768;-75
2022/03/13 05:38:45;;;;;;;51.10;15.70;;;;;;;-3.34;51.43;101208.27;104723;1273;60341;-75
2022/03/13 05:41:36;;;;;;;54.50;16.60;;;;;;;-3.27;51.46;101214.16;105165;1273;73525;-75
2022/03/13 05:44:29;;;;;;;51.30;16.30;;;;;;;-3.22;51.64;101212.40;105300;1273;68605;-77
2022/03/13 05:47:18;;;;;;;50.10;15.70;;;;;;;-3.19;51.45;101207.71;104891;1273;73312;-76
2022/03/13 05:50:06;;;;;;;46.90;15.50;;;;;;;-3.10;51.32;101214.98;104710;1273;59667;-76
2022/03/13 05:52:56;;;;;;;55.90;16.10;;;;;;;-3.04;51.25;101215.31;105171;1273;60633;-77
2022/03/13 05:55:43;;;;;;;51.90;15.60;;;;;;;-2.99;51.13;101213.21;104433;1273;1003226;-77
2022/03/13 05:58:31;;;;;;;50.00;15.20;;;;;;;-2.92;51.15;101213.02;104811;1274;66660;-75
2022/03/13 06:01:18;;;;;;;29.10;11.10;;;;;;;-2.84;51.07;101207.42;104993;1273;71573;-76
2022/03/13 06:04:17;;;;;;;27.20;10.50;;;;;;;-2.77;50.28;101208.42;104257;1273;1004079;-74
2022/03/13 06:07:05;;;;;;;31.10;11.20;;;;;;;-2.61;50.19;101213.57;104128;1273;1003108;-75
2022/03/13 06:09:53;;;;;;;28.50;11.30;;;;;;;-2.51;49.96;101215.44;104090;1273;1003100;-76
2022/03/13 06:12:45;;;;;;;25.80;10.30;;;;;;;-2.41;49.67;101221.46;105056;1273;68300;-75
2022/03/13 06:15:34;;;;;;;28.70;10.10;;;;;;;-2.30;49.63;101220.18;104317;1274;1003008;-74
2022/03/13 06:18:22;;;;;;;25.30;10.40;;;;;;;-2.16;49.63;101223.05;104947;1273;59706;-75
2022/03/13 06:21:13;;;;;;;25.20;10.50;;;;;;;-2.02;49.08;101217.55;104311;1273;1003028;-77
2022/03/13 06:24:01;;;;;;;22.60;10.00;;;;;;;-1.87;49.02;101219.89;104689;1273;73690;-75
2022/03/13 06:26:49;;;;;;;21.40;9.10;;;;;;;-1.71;48.62;101225.84;104337;1273;1003725;-76
2022/03/13 06:29:45;;;;;;;22.60;9.00;;;;;;;-1.55;48.23;101229.52;104851;1274;73075;-74
2022/03/13 06:32:34;;;;;;;20.70;9.40;;;;;;;-1.40;47.56;101233.05;104681;1274;59794;-76
2022/03/13 06:35:24;;;;;;;19.70;8.90;;;;;;;-1.22;47.32;101238.27;104928;1276;59663;-75
2022/03/13 06:38:19;;;;;;;22.40;8.70;;;;;;;-1.04;46.72;101232.85;104850;1277;72501;-76
2022/03/13 06:41:07;;;;;;;22.70;8.70;;;;;;;-0.82;45.79;101238.02;104877;1275;67229;-75
2022/03/13 06:43:55;;;;;;;18.70;8.30;;;;;;;-0.64;45.18;101240.59;104055;1275;1003369;-75
2022/03/13 06:46:43;;;;;;;23.30;10.00;;;;;;;-0.43;44.47;101239.80;104825;1275;59955;-74
2022/03/13 06:49:31;;;;;;;18.80;9.10;;;;;;;-0.22;43.87;101240.73;104773;1277;60493;-76
2022/03/13 06:52:18;;;;;;;39.40;14.00;;;;;;;0.02;44.47;101240.73;104830;1276;73850;-77
2022/03/13 06:55:07;;;;;;;35.00;15.20;;;;;;;0.21;45.92;101240.77;105086;1276;67032;-76
2022/03/13 06:57:54;;;;;;;40.70;15.50;;;;;;;0.42;45.83;101241.30;104566;1276;72975;-74
2022/03/13 07:00:43;;;;;;;78.90;23.40;;;;;;;0.58;45.35;101225.83;104824;1276;59776;-76
2022/03/13 07:03:30;;;;;;;63.90;20.20;;;;;;;0.92;44.68;101237.26;104855;1275;59705;-75
2022/03/13 07:06:20;;;;;;;70.50;21.60;;;;;;;1.38;43.81;101234.27;104869;1273;71320;-76
2022/03/13 07:09:08;;;;;;;44.20;15.60;;;;;;;3.21;40.31;101228.48;104898;1273;66611;-76
2022/03/13 07:11:56;;;;;;;55.50;17.70;;;;;;;5.94;35.50;101219.75;104905;1273;73215;-77
2022/03/13 07:14:47;;;;;;;37.50;13.90;;;;;;;8.37;31.18;101211.91;104890;1274;59750;-77
2022/03/13 07:17:34;;;;;;;36.80;13.00;;;;;;;10.50;27.60;101205.90;105007;1273;60663;-76
2022/03/13 07:20:22;;;;;;;34.80;14.30;;;;;;;12.23;25.15;101192.46;104833;1273;71660;-77
2022/03/13 07:23:16;;;;;;;31.10;12.90;;;;;;;13.89;23.32;101198.16;104838;1274;67110;-78
2022/03/13 07:26:07;;;;;;;28.20;13.70;;;;;;;15.35;21.58;101193.50;104686;1273;73064;-77
2022/03/13 07:28:57;;;;;;;25.60;12.50;;;;;;;16.53;20.35;101186.14;104773;1273;59753;-78
2022/03/13 07:31:44;;;;;;;25.00;11.50;;;;;;;17.39;18.46;101185.77;105132;1273;60693;-77
2022/03/13 07:34:37;;;;;;;22.30;11.00;;;;;;;18.12;17.61;101182.61;104951;1273;73320;-79
2022/03/13 07:37:26;;;;;;;22.30;10.70;;;;;;;18.83;17.24;101188.23;104873;1274;66993;-76
2022/03/13 07:40:16;;;;;;;19.60;10.50;;;;;;;19.36;16.00;101188.25;104970;1271;72158;-77
2022/03/13 07:43:06;;;;;;;15.70;8.90;;;;;;;19.71;15.49;101189.59;105024;1273;59683;-77
2022/03/13 07:45:54;;;;;;;16.50;9.70;;;;;;;20.13;14.47;101184.84;105043;1273;60792;-79
2022/03/13 07:48:44;;;;;;;15.50;8.40;;;;;;;20.34;13.78;101177.86;104991;1273;73010;-78
2022/03/13 07:51:34;;;;;;;18.60;9.90;;;;;;;20.53;13.94;101179.70;105097;1273;67997;-75
2022/03/13 07:54:25;;;;;;;19.90;10.30;;;;;;;20.87;13.46;101183.38;104629;1273;73540;-77
2022/03/13 07:57:12;;;;;;;20.60;10.00;;;;;;;21.25;13.18;101182.02;104777;1273;59718;-77
2022/03/13 08:00:00;;;;;;;19.50;9.00;;;;;;;21.47;12.39;101179.91;104991;1273;59757;-78
2022/03/13 08:02:49;;;;;;;16.20;8.40;;;;;;;21.73;12.00;101174.43;104879;1273;73300;-77
2022/03/13 08:05:37;;;;;;;15.30;8.20;;;;;;;21.96;11.89;101173.42;104868;1273;66731;-77
2022/03/13 08:08:25;;;;;;;16.40;8.80;;;;;;;22.22;11.47;101168.38;104908;1273;72959;-78
2022/03/13 08:11:13;;;;;;;16.30;8.80;;;;;;;22.25;11.05;101165.40;104963;1273;59751;-79
2022/03/13 08:14:05;;;;;;;14.40;8.50;;;;;;;22.53;10.40;101165.22;104859;1273;59573;-77
2022/03/13 08:16:55;;;;;;;15.30;7.90;;;;;;;22.70;10.27;101159.70;104918;1273;72009;-78
2022/03/13 08:19:43;;;;;;;13.30;7.70;;;;;;;22.86;9.99;101154.30;104722;1274;67025;-78
2022/03/13 08:22:31;;;;;;;14.50;7.50;;;;;;;22.86;9.86;101152.17;104589;1273;288660;-77
2022/03/13 08:25:19;;;;;;;13.20;7.90;;;;;;;22.96;9.64;101151.42;104910;1272;59765;-79
2022/03/13 08:28:11;;;;;;;14.10;7.00;;;;;;;22.82;9.56;101150.91;104823;1273;59667;-78
2022/03/13 08:30:59;;;;;;;13.70;7.50;;;;;;;23.07;9.50;101148.38;105231;1273;73466;-79
2022/03/13 08:33:47;;;;;;;14.00;7.60;;;;;;;23.23;9.51;101150.20;105012;1273;65551;-76
2022/03/13 08:36:43;;;;;;;15.30;7.40;;;;;;;23.48;8.97;101159.83;104908;1274;72773;-77
2022/03/13 08:39:32;;;;;;;11.30;6.10;;;;;;;23.51;8.96;101157.01;104988;1273;59795;-78
2022/03/13 08:42:18;;;;;;;11.20;5.80;;;;;;;23.26;8.17;101152.48;104810;1273;61178;-78
2022/03/13 08:45:07;;;;;;;10.60;5.60;;;;;;;22.83;8.32;101156.30;104889;1274;73450;-78
2022/03/13 08:47:54;;;;;;;11.40;6.20;;;;;;;22.62;8.66;101158.46;105254;1274;68022;-78
2022/03/13 08:50:41;;;;;;;11.70;6.70;;;;;;;22.82;8.51;101158.08;104871;1273;70729;-78
2022/03/13 08:53:29;;;;;;;13.20;6.20;;;;;;;22.69;8.41;101157.99;105070;1274;59802;-79
2022/03/13 08:56:18;;;;;;;10.70;6.00;;;;;;;22.46;8.35;101157.33;104923;1274;60514;-78
2022/03/13 08:59:05;;;;;;;14.20;7.20;;;;;;;22.39;8.41;101157.56;105302;1273;72067;-78
2022/03/13 09:01:53;;;;;;;11.00;6.00;;;;;;;22.65;8.68;101159.16;104873;1273;67233;-79
2022/03/13 09:04:41;;;;;;;14.10;7.10;;;;;;;22.85;8.75;101156.11;104879;1273;70596;-78
2022/03/13 09:07:28;;;;;;;11.60;7.10;;;;;;;22.94;8.50;101157.56;104894;1274;59767;-78
2022/03/13 09:10:15;;;;;;;14.40;7.60;;;;;;;22.79;8.52;101161.48;105071;1273;59596;-78
2022/03/13 09:13:03;;;;;;;12.70;7.20;;;;;;;22.99;8.72;101164.27;104848;1273;73144;-79
2022/03/13 09:15:51;;;;;;;13.40;8.00;;;;;;;23.31;8.88;101164.59;104869;1273;68303;-77
2022/03/13 09:18:39;;;;;;;14.70;7.40;;;;;;;23.44;8.12;101167.35;104962;1273;72139;-78
2022/03/13 09:21:26;;;;;;;14.00;7.50;;;;;;;23.68;8.25;101161.81;105017;1273;59631;-77
2022/03/13 09:24:14;;;;;;;14.60;7.30;;;;;;;23.90;7.98;101154.36;105081;1273;59670;-79
2022/03/13 09:27:04;;;;;;;13.20;7.40;;;;;;;24.04;8.15;101156.73;105233;1273;73306;-78
2022/03/13 09:29:54;;;;;;;11.50;6.60;;;;;;;24.27;8.12;101153.13;105120;1274;68129;-78
2022/03/13 09:32:42;;;;;;;12.30;6.50;;;;;;;24.36;7.76;101151.35;104862;1273;71981;-78
2022/03/13 09:35:30;;;;;;;14.10;7.10;;;;;;;24.52;7.61;101151.48;104982;1273;59726;-78
2022/03/13 09:38:17;;;;;;;13.50;7.00;;;;;;;24.37;7.40;101149.72;104661;1271;60892;-78
2022/03/13 09:41:05;;;;;;;13.60;7.90;;;;;;;24.47;8.06;101147.02;105388;1273;71994;-78
2022/03/13 09:43:53;;;;;;;15.10;9.30;;;;;;;24.53;8.23;101148.41;104669;1273;68872;-78
2022/03/13 09:46:40;;;;;;;19.20;11.10;;;;;;;24.71;8.99;101148.66;104809;1273;73078;-79
2022/03/13 09:49:29;;;;;;;19.20;10.80;;;;;;;24.82;8.82;101152.05;104721;1274;60790;-78
2022/03/13 09:52:16;;;;;;;18.80;11.70;;;;;;;24.99;9.15;101149.44;105106;1273;59759;-77
2022/03/13 09:55:07;;;;;;;18.40;12.50;;;;;;;24.89;9.38;101154.83;105490;1273;71735;-78
2022/03/13 09:57:56;;;;;;;21.90;12.60;;;;;;;24.99;9.21;101155.05;104829;1273;66872;-79
2022/03/13 10:00:43;;;;;;;20.60;12.40;;;;;;;24.97;8.73;101154.70;105470;1273;72841;-78
2022/03/13 10:03:31;;;;;;;20.60;13.50;;;;;;;25.21;9.36;101149.41;105408;1273;59777;-79
2022/03/13 10:06:18;;;;;;;28.20;17.50;;;;;;;25.51;10.18;101150.80;105198;1273;59772;-79
2022/03/13 10:09:26;;;;;;;28.00;17.50;;;;;;;25.54;10.61;101148.89;104901;1273;73329;-77
2022/03/13 10:12:17;;;;;;;32.60;20.00;;;;;;;25.75;10.71;101142.48;104868;1273;67573;-78
2022/03/13 10:15:07;;;;;;;30.00;19.70;;;;;;;25.76;10.69;101142.15;105460;1274;72942;-78
2022/03/13 10:17:53;;;;;;;37.30;21.20;;;;;;;25.98;10.58;101139.86;105154;1273;59650;-78
2022/03/13 10:20:42;;;;;;;39.60;19.10;;;;;;;26.14;10.27;101141.33;105182;1273;59735;-77
2022/03/13 10:23:30;;;;;;;27.40;18.60;;;;;;;26.07;10.08;101142.18;105459;1273;71878;-77
2022/03/13 10:26:17;;;;;;;26.80;17.40;;;;;;;26.22;9.66;101140.00;105012;1273;66602;-79
2022/03/13 10:29:05;;;;;;;29.40;18.10;;;;;;;26.37;9.36;101138.88;104860;1273;73089;-79
2022/03/13 10:31:58;;;;;;;28.40;17.20;;;;;;;26.52;9.51;101138.53;105029;1273;59558;-79
2022/03/13 10:34:57;;;;;;;23.20;14.60;;;;;;;26.61;8.21;101140.06;105164;1273;59796;-79
2022/03/13 10:37:44;;;;;;;24.60;13.50;;;;;;;26.62;8.44;101138.44;105197;1273;73333;-78
2022/03/13 10:40:36;;;;;;;23.10;14.00;;;;;;;26.49;8.82;101134.77;105160;1273;70045;-80
2022/03/13 10:43:27;;;;;;;17.80;11.30;;;;;;;26.21;7.47;101135.00;104995;1273;72821;-79
2022/03/13 10:46:36;;;;;;;19.90;12.10;;;;;;;26.15;7.80;101126.98;104908;1273;59859;-78
2022/03/13 10:49:36;;;;;;;18.20;11.40;;;;;;;26.38;8.23;101125.86;105270;1273;60687;-79
2022/03/13 10:52:29;;;;;;;18.70;11.60;;;;;;;26.44;7.57;101122.35;105403;1273;73911;-78
2022/03/13 10:55:24;;;;;;;17.50;10.30;;;;;;;26.35;7.29;101117.86;105281;1272;67511;-78
2022/03/13 10:58:11;;;;;;;15.70;9.30;;;;;;;25.91;6.76;101111.66;105233;1273;72847;-78
2022/03/13 11:01:14;;;;;;;16.80;10.80;;;;;;;25.66;7.33;101109.58;104956;1273;60129;-77
2022/03/13 11:04:09;;;;;;;19.50;11.00;;;;;;;25.16;7.26;101111.55;105234;1273;59954;-79
2022/03/13 11:06:57;;;;;;;21.30;11.20;;;;;;;25.28;7.80;101109.48;105365;1273;73610;-79
2022/03/13 11:09:45;;;;;;;16.40;9.70;;;;;;;25.30;7.69;101112.59;105142;1274;68118;-79
2022/03/13 11:12:34;;;;;;;16.10;9.40;;;;;;;25.21;7.36;101114.28;105021;1273;73502;-78
2022/03/13 11:15:24;;;;;;;15.90;9.40;;;;;;;25.08;7.19;101114.84;105056;1274;59901;-78
2022/03/13 11:18:14;;;;;;;18.80;11.50;;;;;;;24.94;7.86;101111.17;105082;1273;60421;-78
2022/03/13 11:21:06;;;;;;;22.40;13.50;;;;;;;24.75;8.61;101112.55;105111;1273;71930;-79
2022/03/13 11:23:54;;;;;;;21.10;13.20;;;;;;;24.77;9.43;101117.73;105188;1273;65783;-79
2022/03/13 11:26:42;;;;;;;19.20;12.80;;;;;;;24.53;9.26;101120.48;105193;1273;70403;-77
2022/03/13 11:29:54;;;;;;;30.70;18.60;;;;;;;24.12;8.66;101116.52;104843;1273;59861;-78
2022/03/13 11:32:51;;;;;;;24.50;15.00;;;;;;;23.72;10.08;101110.78;104915;1273;59666;-78
2022/03/13 11:35:39;;;;;;;24.50;14.00;;;;;;;23.54;10.22;101105.29;105307;1272;73231;-78
2022/03/13 11:38:28;;;;;;;20.90;13.10;;;;;;;23.31;9.98;101104.58;104890;1273;67264;-77
2022/03/13 11:41:42;;;;;;;20.40;12.70;;;;;;;23.04;10.07;101101.10;105231;1273;73047;-78
2022/03/13 11:44:33;;;;;;;21.70;14.50;;;;;;;22.49;10.09;101103.83;105526;1273;59804;-78
2022/03/13 11:47:25;;;;;;;23.90;15.00;;;;;;;22.04;11.31;101101.05;105065;1273;60523;-78
2022/03/13 11:50:16;;;;;;;24.40;14.40;;;;;;;21.57;11.67;101098.54;105357;1273;72704;-77
2022/03/13 11:53:45;;;;;;;23.60;14.70;;;;;;;21.19;12.05;101100.55;105202;1273;66977;-77
2022/03/13 11:56:49;;;;;;;23.10;14.60;;;;;;;20.87;12.11;101101.44;105125;1273;73510;-78
2022/03/13 11:59:36;;;;;;;23.80;16.00;;;;;;;20.76;12.36;101100.95;104896;1273;59697;-77
2022/03/13 12:02:43;;;;;;;23.00;15.60;;;;;;;20.57;12.35;101101.66;104922;1273;60701;-77
2022/03/13 12:05:51;;;;;;;22.00;15.00;;;;;;;20.08;12.43;101099.83;105178;1273;73576;-76
2022/03/13 12:09:06;;;;;;;28.70;18.50;;;;;;;19.60;13.27;101098.64;105191;1273;68077;-78
2022/03/13 12:11:56;;;;;;;34.60;21.20;;;;;;;19.15;14.91;101103.38;105060;1273;72137;-77
2022/03/13 12:15:05;;;;;;;34.40;22.00;;;;;;;18.88;15.81;101110.88;105117;1273;59790;-78
2022/03/13 12:17:53;;;;;;;33.40;21.40;;;;;;;18.63;16.38;101109.44;105238;1273;60445;-77
2022/03/13 12:20:42;;;;;;;36.80;20.90;;;;;;;18.35;16.58;101111.76;104918;1273;72056;-77
2022/03/13 12:23:33;;;;;;;33.00;20.70;;;;;;;18.13;16.40;101115.16;105497;1273;66723;-76
2022/03/13 12:26:27;;;;;;;32.20;20.60;;;;;;;17.86;16.38;101110.70;104857;1273;70845;-78
2022/03/13 12:29:17;;;;;;;31.80;19.90;;;;;;;17.51;16.82;101109.86;105140;1273;59794;-77
2022/03/13 12:32:11;;;;;;;33.60;20.70;;;;;;;17.13;17.29;101103.03;104911;1273;59763;-77
2022/03/13 12:34:59;;;;;;;32.00;19.20;;;;;;;16.66;17.88;101111.83;104650;1273;73511;-78
2022/03/13 12:38:01;;;;;;;31.60;19.00;;;;;;;16.15;18.66;101115.27;105143;1276;67000;-76
2022/03/13 12:40:49;;;;;;;31.60;19.10;;;;;;;15.59;19.09;101117.91;104910;1277;72971;-78
2022/03/13 12:43:56;;;;;;;30.50;18.60;;;;;;;15.08;19.31;101121.11;104729;1277;60096;-77
2022/03/13 12:46:51;;;;;;;28.50;17.90;;;;;;;14.49;19.77;101120.52;105054;1276;60556;-76
2022/03/13 12:49:39;;;;;;;28.00;18.20;;;;;;;13.97;20.17;101122.83;104699;1277;73263;-77